createdAt,value
2018-03-06T00:01:47.011Z,99.50
2018-03-06T00:04:14.620Z,99.40
2018-03-06T00:06:42.240Z,99.50
2018-03-06T00:09:09.892Z,99.50
2018-03-06T00:11:37.487Z,99.60
2018-03-06T00:14:05.053Z,99.60
2018-03-06T00:16:32.686Z,99.80
2018-03-06T00:19:00.296Z,99.90
2018-03-06T00:21:28.672Z,99.90
2018-03-06T00:23:56.283Z,99.90
2018-03-06T00:26:23.885Z,99.90
2018-03-06T00:28:51.503Z,99.90
2018-03-06T00:31:19.100Z,99.90
2018-03-06T00:33:46.718Z,99.90
2018-03-06T00:36:14.323Z,99.90
2018-03-06T00:38:41.948Z,99.90
2018-03-06T00:41:09.577Z,99.90
2018-03-06T00:43:37.219Z,99.90
2018-03-06T00:46:04.828Z,99.90
2018-03-06T00:48:32.411Z,99.90
2018-03-06T00:51:00.027Z,99.90
2018-03-06T00:53:27.624Z,99.90
2018-03-06T00:55:55.247Z,99.90
2018-03-06T00:58:22.864Z,99.90
2018-03-06T01:00:50.688Z,99.90
2018-03-06T01:03:18.309Z,99.90
2018-03-06T01:05:45.886Z,99.90
2018-03-06T01:08:15.116Z,99.90
2018-03-06T01:10:42.706Z,99.90
2018-03-06T01:13:10.341Z,99.90
2018-03-06T01:15:37.936Z,99.90
2018-03-06T01:18:05.526Z,99.90
2018-03-06T01:20:33.139Z,99.90
2018-03-06T01:23:00.741Z,99.90
2018-03-06T01:25:29.120Z,99.90
2018-03-06T01:27:57.484Z,99.90
2018-03-06T01:30:25.875Z,99.90
2018-03-06T01:32:54.890Z,99.90
2018-03-06T01:35:22.520Z,99.90
2018-03-06T01:37:50.108Z,99.90
2018-03-06T01:40:17.716Z,99.90
2018-03-06T01:42:45.335Z,99.90
2018-03-06T01:45:12.942Z,99.90
2018-03-06T01:47:40.542Z,99.90
2018-03-06T01:50:08.139Z,99.90
2018-03-06T01:52:35.773Z,99.90
2018-03-06T01:55:03.407Z,99.90
2018-03-06T01:57:30.987Z,99.90
2018-03-06T01:59:58.642Z,99.90
2018-03-06T02:02:26.292Z,99.90
2018-03-06T02:04:54.675Z,99.90
2018-03-06T02:07:23.036Z,99.90
2018-03-06T02:09:50.659Z,99.90
2018-03-06T02:12:18.245Z,99.90
2018-03-06T02:14:45.875Z,99.90
2018-03-06T02:17:13.464Z,99.90
2018-03-06T02:19:41.054Z,99.90
2018-03-06T02:22:09.430Z,99.90
2018-03-06T02:24:37.788Z,99.90
2018-03-06T02:27:06.079Z,99.90
2018-03-06T02:29:33.656Z,99.90
2018-03-06T02:32:02.050Z,99.90
2018-03-06T02:34:29.673Z,99.90
2018-03-06T02:36:57.268Z,99.90
2018-03-06T02:39:25.656Z,99.90
2018-03-06T02:41:53.243Z,99.90
2018-03-06T02:44:20.831Z,99.90
2018-03-06T02:46:48.449Z,99.90
2018-03-06T02:49:16.054Z,99.90
2018-03-06T02:51:43.673Z,99.90
2018-03-06T02:54:11.267Z,99.90
2018-03-06T02:56:38.904Z,99.90
2018-03-06T02:59:06.508Z,99.90
2018-03-06T03:01:34.086Z,99.90
2018-03-06T03:04:01.704Z,99.90
2018-03-06T03:06:29.290Z,99.90
2018-03-06T03:08:56.912Z,99.90
2018-03-06T03:11:24.528Z,99.90
2018-03-06T03:13:52.873Z,99.90
2018-03-06T03:16:20.495Z,99.90
2018-03-06T03:18:48.085Z,99.90
2018-03-06T03:21:15.715Z,99.90
2018-03-06T03:23:43.289Z,99.90
2018-03-06T03:26:10.906Z,99.90
2018-03-06T03:28:38.526Z,99.90
2018-03-06T03:31:06.118Z,99.90
2018-03-06T03:33:34.520Z,99.90
2018-03-06T03:36:02.114Z,99.90
2018-03-06T03:38:29.756Z,99.90
2018-03-06T03:40:57.345Z,99.90
2018-03-06T03:43:24.951Z,99.90
2018-03-06T03:45:52.571Z,99.90
2018-03-06T03:48:20.166Z,99.90
2018-03-06T03:50:47.857Z,99.90
2018-03-06T03:53:15.456Z,99.90
2018-03-06T03:55:43.059Z,99.90
2018-03-06T03:58:10.694Z,99.90
2018-03-06T04:00:39.083Z,99.90
2018-03-06T04:03:07.456Z,99.90
2018-03-06T04:05:35.857Z,99.90
2018-03-06T04:08:03.469Z,99.90
2018-03-06T04:10:31.092Z,99.90
2018-03-06T04:12:58.708Z,99.90
2018-03-06T04:15:26.337Z,99.90
2018-03-06T04:17:53.958Z,99.90
2018-03-06T04:20:21.632Z,99.90
2018-03-06T04:22:49.289Z,99.90
2018-03-06T04:25:16.909Z,99.90
2018-03-06T04:27:44.503Z,99.90
2018-03-06T04:30:12.883Z,99.90
2018-03-06T04:32:40.466Z,99.90
2018-03-06T04:35:08.101Z,99.90
2018-03-06T04:37:36.463Z,99.90
2018-03-06T04:40:04.088Z,99.90
2018-03-06T04:42:31.726Z,99.90
2018-03-06T04:44:59.347Z,99.90
2018-03-06T04:47:27.743Z,99.90
2018-03-06T04:49:55.358Z,99.90
2018-03-06T04:52:22.972Z,99.90
2018-03-06T04:54:50.611Z,99.90
2018-03-06T04:57:18.958Z,99.90
2018-03-06T04:59:46.569Z,99.90
2018-03-06T05:02:14.192Z,99.90
2018-03-06T05:04:41.830Z,99.90
2018-03-06T05:07:09.430Z,99.90
2018-03-06T05:09:37.805Z,99.90
2018-03-06T05:12:05.442Z,99.90
2018-03-06T05:14:33.049Z,99.90
2018-03-06T05:17:00.669Z,99.90
2018-03-06T05:19:28.301Z,99.90
2018-03-06T05:21:55.885Z,99.90
2018-03-06T05:24:23.499Z,99.90
2018-03-06T05:26:51.134Z,99.90
2018-03-06T05:29:18.698Z,99.90
2018-03-06T05:31:46.313Z,99.90
2018-03-06T05:34:13.920Z,99.90
2018-03-06T05:36:42.318Z,99.90
2018-03-06T05:39:09.956Z,99.90
2018-03-06T05:41:38.336Z,99.90
2018-03-06T05:44:07.525Z,99.90
2018-03-06T05:46:35.929Z,99.90
2018-03-06T05:49:03.567Z,99.90
2018-03-06T05:51:31.154Z,99.90
2018-03-06T05:53:58.783Z,99.90
2018-03-06T05:56:26.373Z,99.90
2018-03-06T05:58:54.042Z,99.90
2018-03-06T06:01:22.509Z,99.90
2018-03-06T06:03:50.864Z,99.90
2018-03-06T06:06:18.479Z,99.90
2018-03-06T06:08:46.127Z,99.90
2018-03-06T06:11:13.758Z,99.90
2018-03-06T06:13:42.141Z,99.90
2018-03-06T06:16:09.724Z,99.90
2018-03-06T06:18:38.089Z,99.90
2018-03-06T06:21:06.475Z,99.90
2018-03-06T06:23:34.824Z,99.90
2018-03-06T06:26:02.458Z,99.90
2018-03-06T06:28:30.045Z,99.90
2018-03-06T06:30:57.637Z,99.90
2018-03-06T06:33:25.990Z,99.90
2018-03-06T06:35:53.573Z,99.90
2018-03-06T06:38:21.933Z,99.90
2018-03-06T06:40:49.528Z,99.90
2018-03-06T06:43:17.895Z,99.90
2018-03-06T06:45:45.516Z,99.90
2018-03-06T06:48:13.083Z,99.90
2018-03-06T06:50:40.688Z,99.90
2018-03-06T06:53:09.125Z,99.90
2018-03-06T06:55:36.711Z,99.90
2018-03-06T06:58:04.291Z,99.90
2018-03-06T07:00:32.668Z,99.90
2018-03-06T07:03:01.007Z,99.90
2018-03-06T07:05:28.600Z,99.90
2018-03-06T07:07:56.943Z,99.90
2018-03-06T07:10:24.566Z,99.90
2018-03-06T07:12:52.141Z,99.90
2018-03-06T07:15:19.704Z,99.90
2018-03-06T07:17:47.310Z,99.90
2018-03-06T07:20:15.652Z,99.90
2018-03-06T07:22:43.236Z,99.90
2018-03-06T07:25:10.825Z,99.90
2018-03-06T07:27:39.157Z,99.90
2018-03-06T07:30:06.754Z,99.90
2018-03-06T07:32:35.112Z,99.90
2018-03-06T07:35:02.707Z,99.90
2018-03-06T07:37:30.271Z,99.90
2018-03-06T07:39:58.790Z,99.90
2018-03-06T07:42:26.360Z,99.80
2018-03-06T07:44:53.927Z,99.90
2018-03-06T07:47:21.543Z,99.90
2018-03-06T07:49:49.121Z,99.80
2018-03-06T07:52:16.700Z,99.80
2018-03-06T07:54:44.296Z,99.70
2018-03-06T07:57:11.887Z,99.50
2018-03-06T07:59:39.495Z,99.30
2018-03-06T08:02:07.112Z,99.00
2018-03-06T08:04:34.720Z,98.70
2018-03-06T08:07:02.313Z,98.80
2018-03-06T08:09:29.884Z,98.60
2018-03-06T08:11:57.493Z,98.80
2018-03-06T08:14:25.083Z,98.50
2018-03-06T08:16:52.681Z,98.10
2018-03-06T08:19:20.290Z,97.60
2018-03-06T08:21:48.654Z,97.20
2018-03-06T08:24:17.056Z,96.80
2018-03-06T08:26:45.396Z,96.60
2018-03-06T08:29:12.973Z,96.60
2018-03-06T08:31:40.558Z,96.50
2018-03-06T08:34:08.922Z,96.40
2018-03-06T08:36:37.281Z,96.40
2018-03-06T08:39:04.864Z,96.40
2018-03-06T08:41:33.228Z,96.10
2018-03-06T08:44:00.795Z,96.10
2018-03-06T08:46:29.139Z,95.70
2018-03-06T08:48:56.760Z,95.70
2018-03-06T08:51:24.341Z,95.70
2018-03-06T08:53:51.895Z,95.40
2018-03-06T08:56:19.489Z,95.50
2018-03-06T08:58:47.095Z,95.50
2018-03-06T09:01:15.659Z,95.30
2018-03-06T09:03:44.003Z,95.50
2018-03-06T09:06:11.615Z,95.50
2018-03-06T09:08:39.980Z,95.40
2018-03-06T09:11:08.313Z,95.20
2018-03-06T09:13:35.899Z,95.20
2018-03-06T09:16:03.483Z,95.20
2018-03-06T09:18:31.821Z,94.90
2018-03-06T09:20:59.411Z,94.90
2018-03-06T09:23:27.007Z,94.90
2018-03-06T09:25:54.574Z,94.70
2018-03-06T09:28:22.135Z,94.50
2018-03-06T09:30:49.726Z,94.20
2018-03-06T09:33:17.325Z,94.10
2018-03-06T09:35:45.669Z,93.70
2018-03-06T09:38:13.259Z,93.70
2018-03-06T09:40:41.579Z,93.30
2018-03-06T09:43:09.146Z,93.30
2018-03-06T09:45:36.729Z,93.40
2018-03-06T09:48:04.318Z,93.00
2018-03-06T09:50:32.671Z,92.70
2018-03-06T09:53:00.273Z,92.70
2018-03-06T09:55:27.851Z,92.40
2018-03-06T09:57:55.418Z,92.50
2018-03-06T10:00:23.017Z,92.20
2018-03-06T10:02:50.588Z,91.70
2018-03-06T10:05:18.933Z,91.00
2018-03-06T10:07:46.481Z,91.00
2018-03-06T10:10:14.088Z,90.40
2018-03-06T10:12:42.420Z,89.00
2018-03-06T10:15:10.001Z,89.00
2018-03-06T10:17:37.557Z,88.50
2018-03-06T10:20:05.173Z,87.30
2018-03-06T10:22:32.742Z,87.30
2018-03-06T10:25:00.320Z,87.20
2018-03-06T10:27:27.906Z,86.80
2018-03-06T10:29:55.468Z,86.40
2018-03-06T10:32:23.079Z,86.50
2018-03-06T10:34:50.670Z,86.20
2018-03-06T10:37:18.254Z,86.10
2018-03-06T10:39:45.845Z,83.30
2018-03-06T10:42:14.185Z,85.30
2018-03-06T10:44:41.788Z,85.30
2018-03-06T10:47:09.382Z,84.20
2018-03-06T10:49:36.949Z,83.70
2018-03-06T10:52:04.552Z,83.10
2018-03-06T10:54:32.908Z,81.80
2018-03-06T10:57:00.503Z,81.80
2018-03-06T10:59:28.105Z,81.40
2018-03-06T11:01:56.607Z,82.50
2018-03-06T11:04:24.252Z,81.80
2018-03-06T11:06:51.831Z,80.90
2018-03-06T11:09:19.384Z,80.70
2018-03-06T11:11:47.652Z,80.60
2018-03-06T11:14:15.259Z,81.00
2018-03-06T11:16:42.857Z,81.20
2018-03-06T11:19:10.457Z,80.70
2018-03-06T11:21:38.030Z,80.40
2018-03-06T11:24:06.378Z,78.50
2018-03-06T11:26:33.938Z,78.50
2018-03-06T11:29:01.538Z,77.80
2018-03-06T11:31:29.116Z,77.50
2018-03-06T11:33:56.701Z,76.60
2018-03-06T11:36:24.254Z,75.50
2018-03-06T11:38:52.726Z,74.60
2018-03-06T11:41:20.355Z,73.80
2018-03-06T11:43:48.699Z,72.80
2018-03-06T11:46:16.264Z,72.80
2018-03-06T11:48:43.849Z,72.50
2018-03-06T11:51:12.198Z,71.00
2018-03-06T11:53:39.781Z,71.00
2018-03-06T11:56:08.110Z,70.10
2018-03-06T11:58:35.694Z,70.10
2018-03-06T12:01:03.301Z,69.30
2018-03-06T12:03:30.884Z,69.90
2018-03-06T12:05:58.466Z,69.50
2018-03-06T12:08:26.054Z,68.80
2018-03-06T12:10:54.433Z,67.30
2018-03-06T12:13:22.768Z,66.20
2018-03-06T12:15:50.351Z,66.20
2018-03-06T12:18:17.934Z,64.60
2018-03-06T12:20:46.287Z,64.10
2018-03-06T12:23:13.868Z,64.00
2018-03-06T12:25:42.237Z,64.50
2018-03-06T12:28:09.801Z,64.50
2018-03-06T12:30:37.382Z,62.40
2018-03-06T12:33:05.743Z,62.30
2018-03-06T12:35:33.334Z,62.30
2018-03-06T12:38:00.919Z,63.40
2018-03-06T12:40:28.511Z,62.80
2018-03-06T12:42:56.141Z,63.50
2018-03-06T12:45:23.721Z,62.20
2018-03-06T12:47:51.293Z,61.70
2018-03-06T12:50:18.887Z,61.80
2018-03-06T12:52:46.463Z,60.60
2018-03-06T12:55:14.041Z,59.90
2018-03-06T12:57:41.645Z,60.00
2018-03-06T13:00:09.216Z,59.70
2018-03-06T13:02:37.593Z,58.90
2018-03-06T13:05:05.946Z,59.20
2018-03-06T13:07:33.510Z,59.20
2018-03-06T13:10:01.105Z,59.30
2018-03-06T13:12:28.679Z,59.40
2018-03-06T13:14:56.299Z,59.20
2018-03-06T13:17:24.639Z,60.60
2018-03-06T13:19:52.213Z,60.50
2018-03-06T13:22:19.822Z,60.20
2018-03-06T13:24:47.390Z,60.30
2018-03-06T13:27:15.017Z,59.30
2018-03-06T13:29:43.353Z,59.30
2018-03-06T13:32:10.944Z,59.20
2018-03-06T13:34:38.542Z,59.20
2018-03-06T13:37:06.878Z,59.70
2018-03-06T13:39:34.473Z,59.70
2018-03-06T13:42:02.836Z,58.00
2018-03-06T13:44:30.444Z,58.00
2018-03-06T13:46:58.032Z,58.10
2018-03-06T13:49:25.633Z,58.70
2018-03-06T13:51:53.977Z,58.40
2018-03-06T13:54:21.631Z,58.40
2018-03-06T13:56:49.208Z,58.90
2018-03-06T13:59:17.793Z,59.00
2018-03-06T14:01:45.392Z,59.10
2018-03-06T14:04:12.991Z,59.00
2018-03-06T14:06:40.568Z,59.00
2018-03-06T14:09:08.153Z,59.30
2018-03-06T14:11:36.519Z,59.30
2018-03-06T14:14:04.087Z,59.30
2018-03-06T14:16:32.432Z,59.40
2018-03-06T14:19:00.029Z,59.30
2018-03-06T14:21:28.397Z,59.30
2018-03-06T14:23:56.005Z,59.30
2018-03-06T14:26:23.577Z,60.30
2018-03-06T14:28:51.146Z,60.40
2018-03-06T14:31:18.751Z,61.00
2018-03-06T14:33:47.089Z,61.00
2018-03-06T14:36:14.703Z,60.80
2018-03-06T14:38:42.316Z,60.60
2018-03-06T14:41:10.887Z,60.60
2018-03-06T14:43:38.520Z,59.90
2018-03-06T14:46:06.100Z,60.70
2018-03-06T14:48:33.672Z,61.90
2018-03-06T14:51:01.276Z,61.50
2018-03-06T14:53:29.646Z,63.10
2018-03-06T14:55:57.980Z,63.00
2018-03-06T14:58:25.560Z,63.00
2018-03-06T15:00:54.248Z,63.10
2018-03-06T15:03:21.814Z,63.20
2018-03-06T15:05:49.384Z,63.30
2018-03-06T15:08:17.001Z,63.70
2018-03-06T15:10:44.562Z,64.30
2018-03-06T15:13:12.136Z,64.80
2018-03-06T15:15:39.774Z,65.70
2018-03-06T15:18:07.762Z,65.90
2018-03-06T15:20:35.332Z,66.00
2018-03-06T15:23:02.974Z,66.70
2018-03-06T15:25:30.555Z,66.80
2018-03-06T15:27:58.117Z,66.90
2018-03-06T15:30:25.715Z,67.00
2018-03-06T15:32:53.301Z,67.40
2018-03-06T15:35:20.964Z,67.90
2018-03-06T15:37:48.630Z,67.70
2018-03-06T15:40:16.306Z,67.60
2018-03-06T15:42:43.986Z,68.20
2018-03-06T15:45:11.609Z,68.30
2018-03-06T15:47:39.251Z,68.70
2018-03-06T15:50:06.895Z,68.60
2018-03-06T15:52:35.254Z,69.30
2018-03-06T15:55:02.855Z,69.30
2018-03-06T15:57:30.514Z,69.40
2018-03-06T15:59:58.140Z,70.10
2018-03-06T16:02:25.743Z,70.70
2018-03-06T16:04:53.372Z,71.30
2018-03-06T16:07:21.793Z,72.80
2018-03-06T16:09:49.441Z,72.70
2018-03-06T16:12:17.127Z,73.20
2018-03-06T16:14:44.723Z,73.90
2018-03-06T16:17:12.351Z,74.50
2018-03-06T16:19:40.014Z,75.10
2018-03-06T16:22:07.677Z,75.40
2018-03-06T16:24:35.287Z,75.60
2018-03-06T16:27:02.888Z,76.00
2018-03-06T16:29:30.540Z,76.60
2018-03-06T16:31:58.192Z,76.80
2018-03-06T16:34:25.804Z,77.50
2018-03-06T16:36:53.412Z,77.80
2018-03-06T16:39:21.047Z,78.10
2018-03-06T16:41:48.651Z,78.70
2018-03-06T16:44:16.259Z,79.20
2018-03-06T16:46:43.913Z,79.70
2018-03-06T16:49:12.518Z,80.40
2018-03-06T16:51:40.909Z,82.10
2018-03-06T16:54:09.345Z,82.70
2018-03-06T16:56:36.975Z,82.70
2018-03-06T16:59:04.582Z,83.30
2018-03-06T17:01:32.222Z,85.30
2018-03-06T17:03:59.815Z,86.10
2018-03-06T17:06:27.474Z,87.80
2018-03-06T17:08:55.085Z,89.30
2018-03-06T17:11:22.692Z,90.30
2018-03-06T17:13:50.362Z,90.80
2018-03-06T17:16:18.736Z,91.90
2018-03-06T17:18:46.353Z,91.90
2018-03-06T17:21:13.981Z,92.40
2018-03-06T17:23:41.622Z,92.90
2018-03-06T17:26:09.992Z,94.00
2018-03-06T17:28:37.621Z,93.90
2018-03-06T17:31:05.276Z,94.20
2018-03-06T17:33:32.883Z,94.70
2018-03-06T17:36:00.493Z,95.30
2018-03-06T17:38:28.129Z,95.60
2018-03-06T17:40:55.730Z,96.10
2018-03-06T17:43:23.356Z,96.40
2018-03-06T17:45:50.990Z,96.60
2018-03-06T17:48:19.381Z,97.40
2018-03-06T17:50:47.739Z,97.70
2018-03-06T17:53:16.096Z,97.70
2018-03-06T17:55:43.699Z,97.90
2018-03-06T17:58:12.141Z,98.40
2018-03-06T18:00:39.763Z,98.40
2018-03-06T18:03:07.362Z,98.60
2018-03-06T18:05:35.052Z,98.90
2018-03-06T18:08:03.434Z,99.20
2018-03-06T18:10:31.806Z,99.30
2018-03-06T18:12:59.469Z,99.30
2018-03-06T18:15:27.924Z,99.80
2018-03-06T18:17:55.537Z,99.80
2018-03-06T18:20:23.184Z,99.80
2018-03-06T18:22:51.568Z,99.80
2018-03-06T18:25:19.179Z,99.80
2018-03-06T18:27:46.846Z,99.80
2018-03-06T18:30:14.469Z,99.90
2018-03-06T18:32:43.004Z,99.80
2018-03-06T18:35:10.674Z,99.70
2018-03-06T18:37:38.300Z,99.70
2018-03-06T18:40:05.908Z,99.80
2018-03-06T18:42:33.559Z,99.80
2018-03-06T18:45:01.171Z,99.90
2018-03-06T18:47:29.799Z,99.90
2018-03-06T18:50:04.033Z,99.90
2018-03-06T18:52:32.399Z,99.90
2018-03-06T18:55:00.772Z,99.90
2018-03-06T18:57:28.485Z,99.90
2018-03-06T19:03:10.394Z,99.90
2018-03-06T19:09:00.571Z,99.90
2018-03-06T19:11:28.944Z,99.90
2018-03-06T19:13:57.347Z,99.90
2018-03-06T19:16:24.964Z,99.90
2018-03-06T19:18:52.603Z,99.90
2018-03-06T19:21:20.205Z,99.90
2018-03-06T19:23:48.578Z,99.90
2018-03-06T19:26:16.245Z,99.90
2018-03-06T19:28:44.623Z,99.90
2018-03-06T19:31:12.218Z,99.90
2018-03-06T19:33:39.969Z,99.90
2018-03-06T19:36:07.597Z,99.90
2018-03-06T19:38:36.040Z,99.90
2018-03-06T19:41:03.705Z,99.90
2018-03-06T19:43:31.294Z,99.90
2018-03-06T19:45:58.883Z,99.90
2018-03-06T19:48:27.234Z,99.90
2018-03-06T19:50:54.812Z,99.90
2018-03-06T19:53:23.177Z,99.90
2018-03-06T19:55:50.755Z,99.90
2018-03-06T19:58:19.103Z,99.90
2018-03-06T20:00:47.463Z,99.90
2018-03-06T20:03:15.328Z,99.90
2018-03-06T20:05:42.909Z,99.90
2018-03-06T20:08:10.484Z,99.90
2018-03-06T20:10:38.063Z,99.90
2018-03-06T20:13:06.399Z,99.90
2018-03-06T20:15:33.996Z,99.90
2018-03-06T20:18:02.331Z,99.90
2018-03-06T20:20:29.947Z,99.90
2018-03-06T20:22:58.279Z,99.90
2018-03-06T20:25:31.702Z,99.90
2018-03-06T20:28:00.076Z,99.90
2018-03-06T20:30:33.258Z,99.90
2018-03-06T20:33:06.554Z,99.90
2018-03-06T20:35:34.159Z,99.90
2018-03-06T20:38:01.747Z,99.90
2018-03-06T20:40:34.271Z,99.90
2018-03-06T20:43:02.648Z,99.90
2018-03-06T20:45:36.634Z,99.90
2018-03-06T20:48:04.253Z,99.90
2018-03-06T20:50:31.856Z,99.90
2018-03-06T20:53:05.049Z,99.90
2018-03-06T20:55:32.682Z,99.90
2018-03-06T20:58:00.250Z,99.90
2018-03-06T21:00:27.902Z,99.90
2018-03-06T21:02:55.499Z,99.90
2018-03-06T21:05:23.102Z,99.90
2018-03-06T21:07:50.673Z,99.90
2018-03-06T21:10:18.266Z,99.90
2018-03-06T21:12:45.878Z,99.90
2018-03-06T21:15:13.472Z,99.90
2018-03-06T21:17:41.096Z,99.90
2018-03-06T21:20:08.959Z,99.90
2018-03-06T21:22:37.303Z,99.90
2018-03-06T21:25:04.941Z,99.90
2018-03-06T21:27:32.522Z,99.90
2018-03-06T21:30:00.099Z,99.90
2018-03-06T21:32:28.443Z,99.90
2018-03-06T21:34:56.062Z,99.90
2018-03-06T21:37:23.634Z,99.90
2018-03-06T21:39:51.214Z,99.90
2018-03-06T21:42:19.575Z,99.90
2018-03-06T21:44:47.164Z,99.90
2018-03-06T21:47:14.734Z,99.90
2018-03-06T21:49:42.359Z,99.90
2018-03-06T21:52:09.945Z,99.90
2018-03-06T21:54:37.510Z,99.90
2018-03-06T21:57:05.113Z,99.90
2018-03-06T21:59:32.712Z,99.90
2018-03-06T22:02:00.288Z,99.90
2018-03-06T22:04:27.901Z,99.90
2018-03-06T22:06:55.497Z,99.90
2018-03-06T22:09:23.088Z,99.90
2018-03-06T22:11:50.712Z,99.90
2018-03-06T22:14:18.291Z,99.90
2018-03-06T22:16:46.642Z,99.90
2018-03-06T22:19:14.245Z,99.90
2018-03-06T22:21:41.805Z,99.90
2018-03-06T22:24:09.374Z,99.90
2018-03-06T22:26:37.733Z,99.90
2018-03-06T22:29:05.336Z,99.90
2018-03-06T22:31:32.934Z,99.90
2018-03-06T22:34:00.517Z,99.90
2018-03-06T22:36:28.088Z,99.90
2018-03-06T22:38:55.654Z,99.90
2018-03-06T22:41:23.247Z,99.90
2018-03-06T22:43:50.830Z,99.90
2018-03-06T22:46:18.436Z,99.90
2018-03-06T22:48:46.780Z,99.90
2018-03-06T22:51:14.361Z,99.90
2018-03-06T22:53:41.946Z,99.90
2018-03-06T22:56:10.279Z,99.90
2018-03-06T22:58:38.659Z,99.90
2018-03-06T23:01:06.268Z,99.90
2018-03-06T23:03:34.608Z,99.90
2018-03-06T23:06:02.204Z,99.90
2018-03-06T23:08:30.593Z,99.90
2018-03-06T23:10:58.177Z,99.90
2018-03-06T23:13:25.747Z,99.90
2018-03-06T23:15:53.355Z,99.90
2018-03-06T23:18:21.689Z,99.90
2018-03-06T23:20:49.299Z,99.90
2018-03-06T23:23:17.641Z,99.90
2018-03-06T23:25:45.253Z,99.90
2018-03-06T23:28:12.842Z,99.90
2018-03-06T23:30:40.423Z,99.90
2018-03-06T23:33:08.011Z,99.90
2018-03-06T23:35:36.334Z,99.90
2018-03-06T23:38:03.922Z,99.90
2018-03-06T23:40:31.506Z,99.90
2018-03-06T23:42:59.902Z,99.90
2018-03-06T23:45:27.484Z,99.90
2018-03-06T23:47:55.050Z,99.90
2018-03-06T23:50:22.635Z,99.90
2018-03-06T23:52:50.239Z,99.90
2018-03-06T23:55:17.823Z,99.90
2018-03-06T23:57:45.390Z,99.90
